createdAt,value
2022-11-19T00:00:12.650Z,3.00
2022-11-19T00:02:41.106Z,3.03
2022-11-19T00:05:09.905Z,3.27
2022-11-19T00:07:39.889Z,2.47
2022-11-19T00:10:10.306Z,3.03
2022-11-19T00:12:55.903Z,2.47
2022-11-19T00:15:25.256Z,2.23
2022-11-19T00:17:53.795Z,3.90
2022-11-19T00:20:22.220Z,4.20
2022-11-19T00:22:54.164Z,3.50
2022-11-19T00:25:22.972Z,3.70
2022-11-19T00:27:51.433Z,3.37
2022-11-19T00:30:46.416Z,3.03
2022-11-19T00:33:10.670Z,2.93
2022-11-19T00:35:39.563Z,4.70
2022-11-19T00:38:09.881Z,3.07
2022-11-19T00:40:38.728Z,2.93
2022-11-19T00:43:24.975Z,5.67
2022-11-19T00:45:53.735Z,4.30
2022-11-19T00:48:22.184Z,3.63
2022-11-19T00:50:50.571Z,3.30
2022-11-19T00:53:20.367Z,4.33
2022-11-19T00:55:48.788Z,3.60
2022-11-19T00:58:17.703Z,1.97
2022-11-19T01:00:46.171Z,5.20
2022-11-19T01:03:14.853Z,3.83
2022-11-19T01:05:43.570Z,3.17
2022-11-19T01:08:11.992Z,4.03
2022-11-19T01:10:42.564Z,3.63
2022-11-19T01:13:28.630Z,5.93
2022-11-19T01:15:57.395Z,5.43
2022-11-19T01:18:26.031Z,7.17
2022-11-19T01:20:54.447Z,5.47
2022-11-19T01:23:23.041Z,4.80
2022-11-19T01:25:52.921Z,4.83
2022-11-19T01:28:21.364Z,5.10
2022-11-19T01:30:49.770Z,6.70
2022-11-19T01:33:18.405Z,4.73
2022-11-19T01:35:47.039Z,3.97
2022-11-19T01:38:15.499Z,4.93
2022-11-19T01:40:44.984Z,5.30
2022-11-19T01:43:15.247Z,6.13
2022-11-19T01:45:46.107Z,5.77
2022-11-19T01:48:16.428Z,5.53
2022-11-19T01:50:49.509Z,5.70
2022-11-19T01:53:19.272Z,6.73
2022-11-19T01:55:48.716Z,7.07
2022-11-19T01:58:21.236Z,8.97
2022-11-19T02:00:50.291Z,10.43
2022-11-19T02:03:19.947Z,6.87
2022-11-19T02:05:48.886Z,5.97
2022-11-19T02:08:32.137Z,5.63
2022-11-19T02:11:06.590Z,10.13
2022-11-19T02:13:40.823Z,6.80
2022-11-19T02:16:10.550Z,5.90
2022-11-19T02:18:44.526Z,9.73
2022-11-19T02:21:18.150Z,6.80
2022-11-19T02:23:54.044Z,5.13
2022-11-19T02:26:32.756Z,5.00
2022-11-19T02:29:09.324Z,6.30
2022-11-19T02:31:40.991Z,10.00
2022-11-19T02:34:33.431Z,7.17
2022-11-19T02:37:04.314Z,7.67
2022-11-19T02:39:37.405Z,8.03
2022-11-19T02:42:08.677Z,8.30
2022-11-19T02:44:57.085Z,7.47
2022-11-19T02:47:29.319Z,6.57
2022-11-19T02:49:59.828Z,10.83
2022-11-19T02:52:29.439Z,6.10
2022-11-19T02:54:57.817Z,5.10
2022-11-19T02:57:26.227Z,5.70
2022-11-19T03:00:16.366Z,4.47
2022-11-19T03:03:19.875Z,4.90
2022-11-19T03:05:50.879Z,10.03
2022-11-19T03:08:20.329Z,7.90
2022-11-19T03:10:53.373Z,6.23
2022-11-19T03:13:54.704Z,6.40
2022-11-19T03:16:49.561Z,8.40
2022-11-19T03:19:27.124Z,5.50
2022-11-19T03:21:58.219Z,6.67
2022-11-19T03:24:30.413Z,6.43
2022-11-19T03:27:01.239Z,7.87
2022-11-19T03:29:31.252Z,5.83
2022-11-19T03:32:01.862Z,6.67
2022-11-19T03:34:32.656Z,11.60
2022-11-19T03:37:02.260Z,8.43
2022-11-19T03:39:31.278Z,7.13
2022-11-19T03:41:59.978Z,11.30
2022-11-19T03:44:31.475Z,5.87
2022-11-19T03:47:01.812Z,6.97
2022-11-19T03:49:33.807Z,8.53
2022-11-19T03:52:04.856Z,7.53
2022-11-19T03:54:33.430Z,9.87
2022-11-19T03:57:01.888Z,7.67
2022-11-19T03:59:30.740Z,6.27
2022-11-19T04:02:00.430Z,10.77
2022-11-19T04:04:38.125Z,9.13
2022-11-19T04:07:09.122Z,6.43
2022-11-19T04:09:37.798Z,9.27
2022-11-19T04:12:06.737Z,8.67
2022-11-19T04:14:35.292Z,8.13
2022-11-19T04:17:03.682Z,8.17
2022-11-19T04:19:32.119Z,7.30
2022-11-19T04:22:00.520Z,10.13
2022-11-19T04:24:30.564Z,9.47
2022-11-19T04:26:59.242Z,7.93
2022-11-19T04:29:28.357Z,7.27
2022-11-19T04:31:56.780Z,7.27
2022-11-19T04:34:25.215Z,8.73
2022-11-19T04:36:53.884Z,6.53
2022-11-19T04:39:22.655Z,9.17
2022-11-19T04:41:54.807Z,7.93
2022-11-19T04:44:23.275Z,8.03
2022-11-19T04:46:52.099Z,9.67
2022-11-19T04:49:20.874Z,9.37
2022-11-19T04:51:50.040Z,8.20
2022-11-19T04:54:21.685Z,9.37
2022-11-19T04:56:50.070Z,9.77
2022-11-19T04:59:20.708Z,8.67
2022-11-19T05:01:50.248Z,10.17
2022-11-19T05:04:18.718Z,8.47
2022-11-19T05:06:47.107Z,16.30
2022-11-19T05:09:15.524Z,8.90
2022-11-19T05:11:43.942Z,7.73
2022-11-19T05:14:12.368Z,8.00
2022-11-19T05:16:42.631Z,7.80
2022-11-19T05:19:11.438Z,11.97
2022-11-19T05:21:39.828Z,10.60
2022-11-19T05:24:08.875Z,11.33
2022-11-19T05:26:37.340Z,8.43
2022-11-19T05:29:05.834Z,11.20
2022-11-19T05:31:34.269Z,9.93
2022-11-19T05:34:04.063Z,9.63
2022-11-19T05:36:32.545Z,8.13
2022-11-19T05:39:00.961Z,10.67
2022-11-19T05:41:29.405Z,6.37
2022-11-19T05:43:58.407Z,8.50
2022-11-19T05:46:26.987Z,10.77
2022-11-19T05:48:56.273Z,8.63
2022-11-19T05:51:26.236Z,8.40
2022-11-19T05:53:54.837Z,8.13
2022-11-19T05:56:23.265Z,7.77
2022-11-19T05:58:51.789Z,9.00
2022-11-19T06:01:26.200Z,6.33
2022-11-19T06:03:55.802Z,7.93
2022-11-19T06:06:26.821Z,9.67
2022-11-19T06:08:55.834Z,6.67
2022-11-19T06:11:42.147Z,7.13
2022-11-19T06:14:10.696Z,6.33
2022-11-19T06:16:39.152Z,5.87
2022-11-19T06:19:07.759Z,6.40
2022-11-19T06:21:37.581Z,7.40
2022-11-19T06:24:06.236Z,7.47
2022-11-19T06:26:35.119Z,8.80
2022-11-19T06:29:04.366Z,6.63
2022-11-19T06:31:33.104Z,7.57
2022-11-19T06:34:01.543Z,10.03
2022-11-19T06:36:35.977Z,8.17
2022-11-19T06:39:09.024Z,7.27
2022-11-19T06:41:37.501Z,9.30
2022-11-19T06:44:06.119Z,6.10
2022-11-19T06:46:34.737Z,6.67
2022-11-19T06:49:05.729Z,9.50
2022-11-19T06:51:34.179Z,5.37
2022-11-19T06:54:02.608Z,8.87
2022-11-19T06:56:33.466Z,8.77
2022-11-19T06:59:01.868Z,7.33
2022-11-19T07:01:30.293Z,8.03
2022-11-19T07:03:58.898Z,7.17
2022-11-19T07:06:27.313Z,7.67
2022-11-19T07:08:55.719Z,7.80
2022-11-19T07:11:26.923Z,7.43
2022-11-19T07:14:00.437Z,8.53
2022-11-19T07:16:29.895Z,8.47
2022-11-19T07:18:59.187Z,10.37
2022-11-19T07:21:27.722Z,9.13
2022-11-19T07:23:56.286Z,9.47
2022-11-19T07:26:24.969Z,7.13
2022-11-19T07:28:53.504Z,7.70
2022-11-19T07:31:24.578Z,14.07
2022-11-19T07:33:53.026Z,8.87
2022-11-19T07:36:21.449Z,6.47
2022-11-19T07:38:50.880Z,6.77
2022-11-19T07:41:36.766Z,5.50
2022-11-19T07:44:05.247Z,7.30
2022-11-19T07:46:35.008Z,7.27
2022-11-19T07:49:03.564Z,8.83
2022-11-19T07:51:31.999Z,5.87
2022-11-19T07:54:00.455Z,7.63
2022-11-19T07:56:29.095Z,7.87
2022-11-19T07:58:57.579Z,6.23
2022-11-19T08:01:26.889Z,7.50
2022-11-19T08:03:57.050Z,6.53
2022-11-19T08:06:26.509Z,6.00
2022-11-19T08:08:55.896Z,5.87
2022-11-19T08:11:24.806Z,8.63
2022-11-19T08:13:53.306Z,7.23
2022-11-19T08:16:38.624Z,6.00
2022-11-19T08:19:12.476Z,6.57
2022-11-19T08:21:48.882Z,8.77
2022-11-19T08:24:18.418Z,6.30
2022-11-19T08:26:47.833Z,8.10
2022-11-19T08:29:17.436Z,7.07
2022-11-19T08:31:47.659Z,4.37
2022-11-19T08:34:19.219Z,5.43
2022-11-19T08:36:47.897Z,7.00
2022-11-19T08:39:16.398Z,5.53
2022-11-19T08:42:04.055Z,4.27
2022-11-19T08:44:32.905Z,7.80
2022-11-19T08:47:04.261Z,6.10
2022-11-19T08:49:34.039Z,6.20
2022-11-19T08:52:02.465Z,5.40
2022-11-19T08:54:30.904Z,5.70
2022-11-19T08:56:59.305Z,5.63
2022-11-19T08:59:27.776Z,6.47
2022-11-19T09:01:56.244Z,4.87
2022-11-19T09:04:24.646Z,5.90
2022-11-19T09:06:54.412Z,5.20
2022-11-19T09:09:22.910Z,6.07
2022-11-19T09:11:51.365Z,5.33
2022-11-19T09:14:20.113Z,6.10
2022-11-19T09:16:48.757Z,4.53
2022-11-19T09:19:17.253Z,4.60
2022-11-19T09:21:45.838Z,5.43
2022-11-19T09:24:15.614Z,4.40
2022-11-19T09:26:47.591Z,5.73
2022-11-19T09:29:19.062Z,7.33
2022-11-19T09:31:47.488Z,6.00
2022-11-19T09:34:15.926Z,5.37
2022-11-19T09:36:44.405Z,5.93
2022-11-19T09:39:12.861Z,6.13
2022-11-19T09:41:48.616Z,6.43
2022-11-19T09:44:25.006Z,5.20
2022-11-19T09:46:55.836Z,5.07
2022-11-19T09:49:27.201Z,4.57
2022-11-19T09:51:58.056Z,4.27
2022-11-19T09:54:26.714Z,4.30
2022-11-19T09:57:01.864Z,6.53
2022-11-19T09:59:34.792Z,4.37
2022-11-19T10:02:03.228Z,3.80
2022-11-19T10:04:33.461Z,3.70
2022-11-19T10:07:07.074Z,3.97
2022-11-19T10:09:46.592Z,5.30
2022-11-19T10:12:24.389Z,7.20
2022-11-19T10:15:00.681Z,3.27
2022-11-19T10:17:33.397Z,3.40
2022-11-19T10:20:12.559Z,3.03
2022-11-19T10:22:42.848Z,5.87
2022-11-19T10:25:16.996Z,2.90
2022-11-19T10:27:48.760Z,3.13
2022-11-19T10:30:18.817Z,2.80
2022-11-19T10:32:53.276Z,3.97
2022-11-19T10:35:23.979Z,3.43
2022-11-19T10:37:55.303Z,6.13
2022-11-19T10:40:24.762Z,6.83
2022-11-19T10:42:56.700Z,3.07
2022-11-19T10:45:27.147Z,4.83
2022-11-19T10:47:58.109Z,7.23
2022-11-19T10:50:27.584Z,6.47
2022-11-19T10:52:57.617Z,5.03
2022-11-19T10:55:28.244Z,6.17
2022-11-19T10:58:04.009Z,3.57
2022-11-19T11:00:32.672Z,4.93
2022-11-19T11:03:03.762Z,3.57
2022-11-19T11:05:32.782Z,6.90
2022-11-19T11:08:02.148Z,5.63
2022-11-19T11:10:36.036Z,4.03
2022-11-19T11:13:36.822Z,3.47
2022-11-19T11:16:09.889Z,4.67
2022-11-19T11:18:40.786Z,5.57
2022-11-19T11:21:12.703Z,4.67
2022-11-19T11:23:49.120Z,6.00
2022-11-19T11:26:20.398Z,7.50
2022-11-19T11:28:57.152Z,6.27
2022-11-19T11:31:30.475Z,7.03
2022-11-19T11:33:59.694Z,5.03
2022-11-19T11:36:29.313Z,5.43
2022-11-19T11:38:59.386Z,4.13
2022-11-19T11:44:26.522Z,6.07
2022-11-19T11:46:56.780Z,6.00
2022-11-19T11:49:30.183Z,4.17
2022-11-19T11:52:03.154Z,4.00
2022-11-19T11:54:31.621Z,4.27
2022-11-19T11:57:10.279Z,4.07
2022-11-19T11:59:40.075Z,4.37
2022-11-19T12:02:13.506Z,4.63
2022-11-19T12:04:42.841Z,3.63
2022-11-19T12:07:18.083Z,3.63
2022-11-19T12:09:52.536Z,5.17
2022-11-19T12:12:27.273Z,4.57
2022-11-19T12:14:59.333Z,4.07
2022-11-19T12:17:35.698Z,6.67
2022-11-19T12:20:22.511Z,3.50
2022-11-19T12:22:59.841Z,4.63
2022-11-19T12:25:32.553Z,5.07
2022-11-19T12:28:20.074Z,3.33
2022-11-19T12:30:52.936Z,2.23
2022-11-19T12:33:31.941Z,3.20
2022-11-19T12:36:07.982Z,2.53
2022-11-19T12:38:38.922Z,2.30
2022-11-19T12:41:17.133Z,3.63
2022-11-19T12:43:53.713Z,2.80
2022-11-19T12:46:30.398Z,2.47
2022-11-19T12:49:04.814Z,2.70
2022-11-19T12:51:38.278Z,2.27
2022-11-19T12:54:16.481Z,2.80
2022-11-19T12:56:51.365Z,3.50
2022-11-19T12:59:33.129Z,3.63
2022-11-19T13:02:05.052Z,2.57
2022-11-19T13:04:38.763Z,3.57
2022-11-19T13:07:09.972Z,4.40
2022-11-19T13:09:43.885Z,6.50
2022-11-19T13:12:15.890Z,3.67
2022-11-19T13:14:54.490Z,3.60
2022-11-19T13:17:28.612Z,1.63
2022-11-19T13:19:59.481Z,2.33
2022-11-19T13:22:29.193Z,1.87
2022-11-19T13:25:01.089Z,3.83
2022-11-19T13:27:30.417Z,2.50
2022-11-19T13:30:01.513Z,2.70
2022-11-19T13:32:35.635Z,2.83
2022-11-19T13:35:12.045Z,3.83
2022-11-19T13:37:45.418Z,2.10
2022-11-19T13:40:19.461Z,2.87
2022-11-19T13:43:30.562Z,3.03
2022-11-19T13:45:57.440Z,2.93
2022-11-19T13:48:29.524Z,2.80
2022-11-19T13:50:59.767Z,4.47
2022-11-19T13:53:33.919Z,3.00
2022-11-19T13:56:02.564Z,3.43
2022-11-19T13:58:35.707Z,3.87
2022-11-19T14:01:22.420Z,2.37
2022-11-19T14:03:58.731Z,2.17
2022-11-19T14:06:37.626Z,2.97
2022-11-19T14:09:13.260Z,4.30
2022-11-19T14:12:01.499Z,3.50
2022-11-19T14:14:55.755Z,3.07
2022-11-19T14:18:00.721Z,4.67
2022-11-19T14:20:53.091Z,4.00
2022-11-19T14:23:56.149Z,5.10
2022-11-19T14:26:49.806Z,4.43
2022-11-19T14:29:39.302Z,2.73
2022-11-19T14:32:20.756Z,4.03
2022-11-19T14:35:09.270Z,3.67
2022-11-19T14:37:41.953Z,5.53
2022-11-19T14:40:11.632Z,2.47
2022-11-19T14:43:14.134Z,4.50
2022-11-19T14:45:42.764Z,2.83
2022-11-19T14:48:11.263Z,3.60
2022-11-19T14:50:39.754Z,3.57
2022-11-19T14:53:19.557Z,4.60
2022-11-19T14:55:54.765Z,3.17
2022-11-19T14:58:25.060Z,4.47
2022-11-19T15:01:07.153Z,5.90
2022-11-19T15:03:37.728Z,5.03
2022-11-19T15:06:08.103Z,3.93
2022-11-19T15:08:50.427Z,4.60
2022-11-19T15:11:19.625Z,4.80
2022-11-19T15:13:48.624Z,5.50
2022-11-19T15:16:17.955Z,4.87
2022-11-19T15:18:56.088Z,3.13
2022-11-19T15:21:40.013Z,4.93
2022-11-19T15:24:15.983Z,4.10
2022-11-19T15:26:50.784Z,3.60
2022-11-19T15:29:23.594Z,3.07
2022-11-19T15:32:02.636Z,2.43
2022-11-19T15:35:03.831Z,2.30
2022-11-19T15:37:32.097Z,4.00
2022-11-19T15:40:05.108Z,3.87
2022-11-19T15:42:34.730Z,4.87
2022-11-19T15:45:05.955Z,2.60
2022-11-19T15:47:38.871Z,3.50
2022-11-19T15:50:08.063Z,5.63
2022-11-19T15:52:36.519Z,1.80
2022-11-19T15:55:13.481Z,3.27
2022-11-19T15:57:43.765Z,3.07
2022-11-19T16:00:17.520Z,6.13
2022-11-19T16:02:47.466Z,4.17
2022-11-19T16:05:21.422Z,3.77
2022-11-19T16:07:50.582Z,3.67
2022-11-19T16:10:23.730Z,2.90
2022-11-19T16:13:13.151Z,3.80
2022-11-19T16:16:06.704Z,4.00
2022-11-19T16:18:35.158Z,3.23
2022-11-19T16:21:03.646Z,3.23
2022-11-19T16:23:52.176Z,2.77
2022-11-19T16:26:21.993Z,4.03
2022-11-19T16:28:50.570Z,7.37
2022-11-19T16:31:19.100Z,4.80
2022-11-19T16:33:54.882Z,5.17
2022-11-19T16:36:24.430Z,5.23
2022-11-19T16:38:53.614Z,5.97
2022-11-19T16:41:42.860Z,4.03
2022-11-19T16:44:13.720Z,8.77
2022-11-19T16:46:42.465Z,4.37
2022-11-19T16:49:15.446Z,5.43
2022-11-19T16:51:53.211Z,6.70
2022-11-19T16:54:36.528Z,4.67
2022-11-19T16:57:07.403Z,7.60
2022-11-19T16:59:36.374Z,7.00
2022-11-19T17:02:05.101Z,7.47
2022-11-19T17:04:33.714Z,7.20
2022-11-19T17:07:02.459Z,8.87
2022-11-19T17:09:32.437Z,8.77
2022-11-19T17:12:19.026Z,7.60
2022-11-19T17:14:51.005Z,7.60
2022-11-19T17:17:27.094Z,9.30
2022-11-19T17:19:57.577Z,9.23
2022-11-19T17:22:28.809Z,8.80
2022-11-19T17:24:57.414Z,5.60
2022-11-19T17:27:27.518Z,7.03
2022-11-19T17:30:00.141Z,6.10
2022-11-19T17:32:29.192Z,7.50
2022-11-19T17:34:57.676Z,8.00
2022-11-19T17:37:26.050Z,6.03
2022-11-19T17:39:54.525Z,8.97
2022-11-19T17:42:40.923Z,8.77
2022-11-19T17:45:11.690Z,7.63
2022-11-19T17:47:40.175Z,8.70
2022-11-19T17:50:09.133Z,8.20
2022-11-19T17:52:37.604Z,6.97
2022-11-19T17:55:12.639Z,6.50
2022-11-19T17:57:42.781Z,6.90
2022-11-19T18:00:13.526Z,7.50
2022-11-19T18:02:41.966Z,5.90
2022-11-19T18:05:15.483Z,7.27
2022-11-19T18:07:44.212Z,7.53
2022-11-19T18:10:13.000Z,6.67
2022-11-19T18:12:41.401Z,8.20
2022-11-19T18:15:15.366Z,6.63
2022-11-19T18:17:43.819Z,5.60
2022-11-19T18:20:12.560Z,6.93
2022-11-19T18:22:41.233Z,6.43
2022-11-19T18:25:14.657Z,7.27
2022-11-19T18:27:43.067Z,7.23
2022-11-19T18:30:14.461Z,6.50
2022-11-19T18:32:42.877Z,6.73
2022-11-19T18:35:13.949Z,5.73
2022-11-19T18:37:42.430Z,4.23
2022-11-19T18:40:11.313Z,7.73
2022-11-19T18:43:00.085Z,6.17
2022-11-19T18:45:28.890Z,7.57
2022-11-19T18:47:57.390Z,4.43
2022-11-19T18:50:29.815Z,7.43
2022-11-19T18:52:58.821Z,5.23
2022-11-19T18:55:27.406Z,6.07
2022-11-19T18:57:55.992Z,7.33
2022-11-19T19:00:25.087Z,5.17
2022-11-19T19:02:54.890Z,5.10
2022-11-19T19:05:23.296Z,6.73
2022-11-19T19:07:51.678Z,8.27
2022-11-19T19:10:20.277Z,5.37
2022-11-19T19:12:47.753Z,4.83
2022-11-19T19:15:16.272Z,4.87
2022-11-19T19:17:44.697Z,5.40
2022-11-19T19:20:17.773Z,6.70
2022-11-19T19:22:46.255Z,4.50
2022-11-19T19:25:14.670Z,5.37
2022-11-19T19:27:43.146Z,3.70
2022-11-19T19:30:11.968Z,3.23
2022-11-19T19:32:40.425Z,3.90
2022-11-19T19:35:09.243Z,3.07
2022-11-19T19:37:39.853Z,5.60
2022-11-19T19:40:09.185Z,4.93
2022-11-19T19:42:41.291Z,3.43
2022-11-19T19:45:10.478Z,3.43
2022-11-19T19:47:38.965Z,4.47
2022-11-19T19:50:08.837Z,4.93
2022-11-19T19:52:38.665Z,6.70
2022-11-19T19:55:07.789Z,6.87
2022-11-19T19:57:36.183Z,5.17
2022-11-19T20:00:04.823Z,4.97
2022-11-19T20:02:40.611Z,3.57
2022-11-19T20:05:09.828Z,5.83
2022-11-19T20:07:39.867Z,4.67
2022-11-19T20:10:08.980Z,4.73
2022-11-19T20:12:51.327Z,7.27
2022-11-19T20:15:23.047Z,4.40
2022-11-19T20:17:51.530Z,6.10
2022-11-19T20:20:20.068Z,7.03
2022-11-19T20:22:49.870Z,4.17
2022-11-19T20:25:18.448Z,4.63
2022-11-19T20:27:47.026Z,5.73
2022-11-19T20:30:15.605Z,5.50
2022-11-19T20:32:44.049Z,5.23
2022-11-19T20:35:12.448Z,5.77
2022-11-19T20:37:41.662Z,5.00
2022-11-19T20:40:12.230Z,8.20
2022-11-19T20:42:58.382Z,4.47
2022-11-19T20:45:26.821Z,6.43
2022-11-19T20:47:56.015Z,6.73
2022-11-19T20:50:32.089Z,5.27
2022-11-19T20:53:01.891Z,8.50
2022-11-19T20:55:31.729Z,7.13
2022-11-19T20:58:01.545Z,7.50
2022-11-19T21:00:29.938Z,6.00
2022-11-19T21:02:58.403Z,4.97
2022-11-19T21:05:33.978Z,4.70
2022-11-19T21:08:02.425Z,5.10
2022-11-19T21:10:32.270Z,4.77
2022-11-19T21:13:03.530Z,5.07
2022-11-19T21:15:32.134Z,5.03
2022-11-19T21:18:02.521Z,4.90
2022-11-19T21:20:31.375Z,7.03
2022-11-19T21:22:59.809Z,4.77
2022-11-19T21:25:28.215Z,5.20
2022-11-19T21:27:57.990Z,4.77
2022-11-19T21:30:26.419Z,5.77
2022-11-19T21:32:54.869Z,6.10
2022-11-19T21:35:23.329Z,6.33
2022-11-19T21:37:51.694Z,4.43
2022-11-19T21:40:20.111Z,5.90
2022-11-19T21:42:48.742Z,6.13
2022-11-19T21:45:18.546Z,6.17
2022-11-19T21:47:47.004Z,5.27
2022-11-19T21:50:17.157Z,5.40
2022-11-19T21:52:45.740Z,5.60
2022-11-19T21:55:14.219Z,6.50
2022-11-19T21:57:42.879Z,5.40
2022-11-19T22:00:12.661Z,6.67
2022-11-19T22:02:46.352Z,7.87
2022-11-19T22:05:14.765Z,7.30
2022-11-19T22:07:46.144Z,8.10
2022-11-19T22:10:14.934Z,8.00
2022-11-19T22:12:43.726Z,6.30
2022-11-19T22:15:12.765Z,8.10
2022-11-19T22:17:41.257Z,6.73
2022-11-19T22:20:11.832Z,9.47
2022-11-19T22:22:44.919Z,6.33
2022-11-19T22:25:13.545Z,7.87
2022-11-19T22:27:44.414Z,8.03
2022-11-19T22:30:13.440Z,9.53
2022-11-19T22:32:42.025Z,9.10
2022-11-19T22:35:11.979Z,10.00
2022-11-19T22:37:40.390Z,9.07
2022-11-19T22:40:09.667Z,8.50
2022-11-19T22:42:38.096Z,8.47
2022-11-19T22:45:07.091Z,10.07
2022-11-19T22:47:35.859Z,8.17
2022-11-19T22:50:04.394Z,9.23
2022-11-19T22:52:34.144Z,9.87
2022-11-19T22:55:02.757Z,11.10
2022-11-19T22:57:31.190Z,12.23
2022-11-19T22:59:59.701Z,11.20
2022-11-19T23:02:28.133Z,11.03
2022-11-19T23:04:56.541Z,10.47
2022-11-19T23:07:25.044Z,7.67
2022-11-19T23:09:54.961Z,9.03
2022-11-19T23:12:49.348Z,10.07
2022-11-19T23:15:18.631Z,10.33
2022-11-19T23:17:47.030Z,8.80
2022-11-19T23:20:15.507Z,9.80
2022-11-19T23:22:44.020Z,11.40
2022-11-19T23:25:13.841Z,8.27
2022-11-19T23:27:42.314Z,8.30
2022-11-19T23:30:11.377Z,9.33
2022-11-19T23:32:40.809Z,9.57
2022-11-19T23:35:09.702Z,11.03
2022-11-19T23:37:38.198Z,12.53
2022-11-19T23:40:07.329Z,9.50
2022-11-19T23:42:37.535Z,7.07
2022-11-19T23:45:06.602Z,10.23
2022-11-19T23:47:38.286Z,8.93
2022-11-19T23:50:07.191Z,9.40
2022-11-19T23:52:35.602Z,11.43
2022-11-19T23:55:04.120Z,8.87
2022-11-19T23:57:32.534Z,8.73
